Ashcamp, Kentucky
Current Conditions -  °F | °C
As of 5:35 PM on Monday 20 Oct 2014 (Local Time) from KLNP Reporting Station
Overcast Overcast  
Wind Chill: 12°   Ceiling: 9000
Heat Index: 12°   Visibility: 10mi
Dew Point:   Wind: 9mph
Humidity: 72%   Direction: 200°SSW
Pressure: 29.98"   Gusts: NA
Location:  37.27°N, 82.43°W
Report Text: KLNP 202135Z AUTO 20008KT 10SM SCT075 OVC090 12/07 A2998 RMK AO2
Loading
Personal Weather Stations






























Interactive Weather Map
Tropical Storm Tracking
New forecast layout! Learn more

10-Day Weather Forecast

Advertisements
Track Severe Weather on mobile